Aérodrome :
LOGIN :

S'inscrire | Disclaimer

   EN    FR    IT 

 










Légende :    VFR   VFR Marginal   IFR   IFR Intensif   IFR Très Intensif
Visi : 
Plafond : 
>= 8 km
>= 3000ft
5 à 8 km
1000 à 3000 ft
1500m à 5 km
500 à 1000 ft
800 à 1500m
200 à 500 ft
< 800m
< 200 ft
Symboles :   Orages  Brouillard  Fortes neiges  Fortes précipitations  Vent > 20 kt
SIGMETs :   Divers  Orages  Givrage  Turbulence  Onde Orograph.  Cendres Volcan.






- Altitude de l'aérodrome : 1989 ft
- Code IATA : KLV


LKKV - Karlovy Vary

DERNIER METAR :
  • 251100Z 32007KT 9999 BKN020 10/08 Q1028

METARs EXPIRÉS :
  • 251033Z 36006KT 330V030 9999 -SHRA FEW010 BKN019 10/07 Q1027 RMK REG QNH 1022
  • 251000Z 30011KT 270V340 9999 FEW010 BKN019 10/07 Q1027
  • 250930Z 27009KT 230V310 9999 -SHRA FEW010 BKN019 11/08 Q1027
  • 250900Z 26007KT 230V290 9999 FEW009 SCT019 09/08 Q1027
  • 250830Z 26007KT 220V290 9999 FEW009 BKN019 09/08 Q1027

TAF TAF LKKV
Valide du 25 à 12h jusqu'au 26 à 18h UTC


251100Z 2512/2618 30008KT 9999 BKN027
TEMPO 2512/2522 32010G20KT 7000 -SHRA SCT010TCU BKN015
PROB30
TEMPO 2512/2516 5000 SHRA SCT013CB
PROB30
TEMPO 2600/2606 VRB02KT 2500 BR BKN004
PROB30
TEMPO 2612/2616 36014KT 8000 -SHRA BKN014



MET'MAP, la Météo Aéronautique d'un coup d'oeil ! - Copyright ORBIFLY Décembre 2007 - Disclaimer

ORBIFLY MET'MAP TEAM :

Programmation & Développement : Alexandra Zaïnal
Sur une idée originale de : Baudouin d'Aumeries
Assistance à la programmation : Marc-Olivier Méhu
Soutien technique & logistique : Manuel Goepfert

Contact : metmap@orbifly.com




SOURCES & CREDITS :

   NOAA